sensor_id;sensor_type;location;lat;lon;timestamp;pressure;altitude;pressure_sealevel;temperature;humidity
8890;BME280;4481;43.406;24.454;2022-10-20T00:00:04;77061.47;;;-144.09;93.76
8890;BME280;4481;43.406;24.454;2022-10-20T00:02:30;77080.28;;;-144.09;93.98
8890;BME280;4481;43.406;24.454;2022-10-20T00:04:57;77084.47;;;-144.09;93.98
8890;BME280;4481;43.406;24.454;2022-10-20T00:07:23;77092.81;;;-144.09;94.12
8890;BME280;4481;43.406;24.454;2022-10-20T00:09:49;77086.53;;;-144.09;94.06
8890;BME280;4481;43.406;24.454;2022-10-20T00:12:15;77092.81;;;-144.09;94.33
8890;BME280;4481;43.406;24.454;2022-10-20T00:14:42;77097.00;;;-144.09;94.41
8890;BME280;4481;43.406;24.454;2022-10-20T00:17:08;77111.63;;;-144.09;94.95
8890;BME280;4481;43.406;24.454;2022-10-20T00:19:34;77119.97;;;-144.09;95.45
8890;BME280;4481;43.406;24.454;2022-10-20T00:22:00;77122.06;;;-144.09;95.81
8890;BME280;4481;43.406;24.454;2022-10-20T00:24:26;77126.25;;;-144.09;96.01
8890;BME280;4481;43.406;24.454;2022-10-20T00:26:52;77128.34;;;-144.09;96.15
8890;BME280;4481;43.406;24.454;2022-10-20T00:29:18;77138.78;;;-144.09;96.49
8890;BME280;4481;43.406;24.454;2022-10-20T00:31:45;77147.16;;;-144.09;96.76
8890;BME280;4481;43.406;24.454;2022-10-20T00:34:11;77134.63;;;-144.09;96.62
8890;BME280;4481;43.406;24.454;2022-10-20T00:36:38;77147.16;;;-144.09;96.74
8890;BME280;4481;43.406;24.454;2022-10-20T00:39:05;77147.16;;;-144.09;96.71
8890;BME280;4481;43.406;24.454;2022-10-20T00:41:32;77147.16;;;-144.09;96.92
8890;BME280;4481;43.406;24.454;2022-10-20T00:43:59;77149.25;;;-144.09;97.02
8890;BME280;4481;43.406;24.454;2022-10-20T00:46:29;77130.44;;;-144.09;96.85
8890;BME280;4481;43.406;24.454;2022-10-20T00:49:00;77155.50;;;-144.09;97.24
8890;BME280;4481;43.406;24.454;2022-10-20T00:51:28;77165.97;;;-144.09;97.89
8890;BME280;4481;43.406;24.454;2022-10-20T00:54:00;77155.50;;;-144.09;97.59
8890;BME280;4481;43.406;24.454;2022-10-20T00:56:28;77163.88;;;-144.09;97.64
8890;BME280;4481;43.406;24.454;2022-10-20T00:58:55;77161.78;;;-144.09;97.69
8890;BME280;4481;43.406;24.454;2022-10-20T01:01:21;77170.16;;;-144.09;97.80
8890;BME280;4481;43.406;24.454;2022-10-20T01:03:49;77180.59;;;-144.09;98.07
8890;BME280;4481;43.406;24.454;2022-10-20T01:06:18;77165.97;;;-144.09;97.76
8890;BME280;4481;43.406;24.454;2022-10-20T01:08:44;77170.16;;;-144.09;97.59
8890;BME280;4481;43.406;24.454;2022-10-20T01:11:16;77170.16;;;-144.09;97.36
8890;BME280;4481;43.406;24.454;2022-10-20T01:13:56;77172.22;;;-144.09;97.40
8890;BME280;4481;43.406;24.454;2022-10-20T01:16:34;77165.97;;;-144.09;97.30
8890;BME280;4481;43.406;24.454;2022-10-20T01:19:17;77159.69;;;-144.09;97.10
8890;BME280;4481;43.406;24.454;2022-10-20T01:22:07;77174.31;;;-144.09;97.54
8890;BME280;4481;43.406;24.454;2022-10-20T01:24:54;77180.59;;;-144.09;97.59
8890;BME280;4481;43.406;24.454;2022-10-20T01:27:37;77186.84;;;-144.09;97.65
8890;BME280;4481;43.406;24.454;2022-10-20T01:30:07;77195.22;;;-144.09;97.99
8890;BME280;4481;43.406;24.454;2022-10-20T01:32:44;77199.41;;;-144.09;98.13
8890;BME280;4481;43.406;24.454;2022-10-20T01:35:21;77201.50;;;-144.09;97.96
8890;BME280;4481;43.406;24.454;2022-10-20T01:37:52;77195.22;;;-144.09;97.84
8890;BME280;4481;43.406;24.454;2022-10-20T01:40:25;77199.41;;;-144.09;98.08
8890;BME280;4481;43.406;24.454;2022-10-20T01:42:58;77195.22;;;-144.09;97.75
8890;BME280;4481;43.406;24.454;2022-10-20T01:45:28;77199.41;;;-144.09;97.83
8890;BME280;4481;43.406;24.454;2022-10-20T01:47:57;77195.22;;;-144.09;97.75
8890;BME280;4481;43.406;24.454;2022-10-20T01:50:24;77195.22;;;-144.09;97.46
8890;BME280;4481;43.406;24.454;2022-10-20T01:52:54;77199.41;;;-144.09;97.64
8890;BME280;4481;43.406;24.454;2022-10-20T01:55:21;77201.50;;;-144.09;97.77
8890;BME280;4481;43.406;24.454;2022-10-20T01:58:08;77199.41;;;-144.09;97.42
8890;BME280;4481;43.406;24.454;2022-10-20T02:00:40;77211.94;;;-144.09;97.71
8890;BME280;4481;43.406;24.454;2022-10-20T02:03:25;77218.22;;;-144.09;97.61
8890;BME280;4481;43.406;24.454;2022-10-20T02:06:07;77218.22;;;-144.09;97.92
8890;BME280;4481;43.406;24.454;2022-10-20T02:08:40;77222.38;;;-144.09;97.60
8890;BME280;4481;43.406;24.454;2022-10-20T02:11:13;77234.94;;;-144.09;98.03
8890;BME280;4481;43.406;24.454;2022-10-20T02:13:42;77232.84;;;-144.09;98.03
8890;BME280;4481;43.406;24.454;2022-10-20T02:16:13;77253.75;;;-144.09;98.10
8890;BME280;4481;43.406;24.454;2022-10-20T02:18:42;77245.38;;;-144.09;98.10
8890;BME280;4481;43.406;24.454;2022-10-20T02:21:10;77253.75;;;-144.09;98.14
8890;BME280;4481;43.406;24.454;2022-10-20T02:23:38;77241.19;;;-144.09;97.43
8890;BME280;4481;43.406;24.454;2022-10-20T02:26:09;77255.81;;;-144.09;97.66
8890;BME280;4481;43.406;24.454;2022-10-20T02:28:40;77268.38;;;-144.09;98.10
8890;BME280;4481;43.406;24.454;2022-10-20T02:31:08;77270.47;;;-144.09;98.10
8890;BME280;4481;43.406;24.454;2022-10-20T02:33:35;77270.47;;;-144.09;97.86
8890;BME280;4481;43.406;24.454;2022-10-20T02:36:04;77283.00;;;-144.09;98.28
8890;BME280;4481;43.406;24.454;2022-10-20T02:38:31;77285.09;;;-144.09;98.22
8890;BME280;4481;43.406;24.454;2022-10-20T02:40:57;77289.28;;;-144.09;98.15
8890;BME280;4481;43.406;24.454;2022-10-20T02:43:23;77291.34;;;-144.09;98.20
8890;BME280;4481;43.406;24.454;2022-10-20T02:45:49;77293.44;;;-144.09;98.19
8890;BME280;4481;43.406;24.454;2022-10-20T02:48:16;77299.72;;;-144.09;98.31
8890;BME280;4481;43.406;24.454;2022-10-20T02:50:42;77310.16;;;-144.09;98.10
8890;BME280;4481;43.406;24.454;2022-10-20T02:53:08;77331.06;;;-144.09;98.38
8890;BME280;4481;43.406;24.454;2022-10-20T02:55:34;77333.16;;;-144.09;98.42
8890;BME280;4481;43.406;24.454;2022-10-20T02:58:00;77324.81;;;-144.09;98.28
8890;BME280;4481;43.406;24.454;2022-10-20T03:00:26;77328.97;;;-144.09;98.16
8890;BME280;4481;43.406;24.454;2022-10-20T03:02:55;77333.16;;;-144.09;98.03
8890;BME280;4481;43.406;24.454;2022-10-20T03:05:22;77349.88;;;-144.09;98.38
8890;BME280;4481;43.406;24.454;2022-10-20T03:07:48;77341.53;;;-144.09;98.03
8890;BME280;4481;43.406;24.454;2022-10-20T03:10:15;77331.06;;;-144.09;97.43
8890;BME280;4481;43.406;24.454;2022-10-20T03:12:41;77324.81;;;-144.09;97.34
8890;BME280;4481;43.406;24.454;2022-10-20T03:15:07;77320.63;;;-144.09;96.85
8890;BME280;4481;43.406;24.454;2022-10-20T03:17:33;77316.44;;;-144.09;96.48
8890;BME280;4481;43.406;24.454;2022-10-20T03:20:00;77324.81;;;-144.09;96.43
8890;BME280;4481;43.406;24.454;2022-10-20T03:22:27;77362.41;;;-144.09;97.44
8890;BME280;4481;43.406;24.454;2022-10-20T03:24:53;77397.94;;;-144.09;98.52
8890;BME280;4481;43.406;24.454;2022-10-20T03:27:19;77408.41;;;-144.09;98.89
8890;BME280;4481;43.406;24.454;2022-10-20T03:29:46;77391.69;;;-144.09;98.43
8890;BME280;4481;43.406;24.454;2022-10-20T03:32:12;77391.69;;;-144.09;98.13
8890;BME280;4481;43.406;24.454;2022-10-20T03:34:38;77381.22;;;-144.09;97.68
8890;BME280;4481;43.406;24.454;2022-10-20T03:37:04;77416.75;;;-144.09;98.55
8890;BME280;4481;43.406;24.454;2022-10-20T03:39:31;77427.22;;;-144.09;98.72
8890;BME280;4481;43.406;24.454;2022-10-20T03:41:57;77425.13;;;-144.09;98.26
8890;BME280;4481;43.406;24.454;2022-10-20T03:44:23;77437.66;;;-144.09;98.46
8890;BME280;4481;43.406;24.454;2022-10-20T03:46:49;77435.56;;;-144.09;98.57
8890;BME280;4481;43.406;24.454;2022-10-20T03:49:15;77427.22;;;-144.09;98.16
8890;BME280;4481;43.406;24.454;2022-10-20T03:51:42;77425.13;;;-144.09;97.96
8890;BME280;4481;43.406;24.454;2022-10-20T03:54:08;77416.75;;;-144.09;97.55
8890;BME280;4481;43.406;24.454;2022-10-20T03:56:34;77433.47;;;-144.09;98.08
8890;BME280;4481;43.406;24.454;2022-10-20T03:59:01;77439.75;;;-144.09;98.27
8890;BME280;4481;43.406;24.454;2022-10-20T04:01:29;77446.03;;;-144.09;98.35
8890;BME280;4481;43.406;24.454;2022-10-20T04:03:56;77460.66;;;-144.09;98.80
8890;BME280;4481;43.406;24.454;2022-10-20T04:06:23;77487.81;;;-144.09;99.44
8890;BME280;4481;43.406;24.454;2022-10-20T04:08:49;77483.66;;;-144.09;99.54
8890;BME280;4481;43.406;24.454;2022-10-20T04:11:15;77502.47;;;-144.09;100.00
8890;BME280;4481;43.406;24.454;2022-10-20T04:13:42;77510.81;;;-144.09;100.00
8890;BME280;4481;43.406;24.454;2022-10-20T04:16:08;77489.91;;;-144.09;99.90
8890;BME280;4481;43.406;24.454;2022-10-20T04:18:34;77460.66;;;-144.09;99.05
8890;BME280;4481;43.406;24.454;2022-10-20T04:21:00;77454.38;;;-144.09;98.49
8890;BME280;4481;43.406;24.454;2022-10-20T04:23:26;77460.66;;;-144.09;98.39
8890;BME280;4481;43.406;24.454;2022-10-20T04:25:52;77460.66;;;-144.09;98.53
8890;BME280;4481;43.406;24.454;2022-10-20T04:28:19;77454.38;;;-144.09;98.13
8890;BME280;4481;43.406;24.454;2022-10-20T04:30:46;77466.94;;;-144.09;98.04
8890;BME280;4481;43.406;24.454;2022-10-20T04:33:13;77475.28;;;-144.09;98.01
8890;BME280;4481;43.406;24.454;2022-10-20T04:35:40;77494.09;;;-144.09;98.22
8890;BME280;4481;43.406;24.454;2022-10-20T04:38:06;77489.91;;;-144.09;97.89
8890;BME280;4481;43.406;24.454;2022-10-20T04:40:32;77489.91;;;-144.09;97.17
8890;BME280;4481;43.406;24.454;2022-10-20T04:42:59;77485.72;;;-144.09;97.22
8890;BME280;4481;43.406;24.454;2022-10-20T04:45:25;77485.72;;;-144.09;96.96
8890;BME280;4481;43.406;24.454;2022-10-20T04:47:52;77489.91;;;-144.09;96.83
8890;BME280;4481;43.406;24.454;2022-10-20T04:50:19;77498.28;;;-144.09;96.74
8890;BME280;4481;43.406;24.454;2022-10-20T04:52:45;77489.91;;;-144.09;96.71
8890;BME280;4481;43.406;24.454;2022-10-20T04:55:11;77502.47;;;-144.09;96.73
8890;BME280;4481;43.406;24.454;2022-10-20T04:57:37;77512.91;;;-144.09;96.92
8890;BME280;4481;43.406;24.454;2022-10-20T05:00:04;77515.00;;;-144.09;97.26
8890;BME280;4481;43.406;24.454;2022-10-20T05:02:30;77515.00;;;-144.09;97.28
8890;BME280;4481;43.406;24.454;2022-10-20T05:04:57;77523.34;;;-144.09;97.38
8890;BME280;4481;43.406;24.454;2022-10-20T05:07:23;77546.34;;;-144.09;97.98
8890;BME280;4481;43.406;24.454;2022-10-20T05:09:49;77577.69;;;-144.09;99.37
8890;BME280;4481;43.406;24.454;2022-10-20T05:12:15;77588.16;;;-144.09;99.73
8890;BME280;4481;43.406;24.454;2022-10-20T05:14:41;77571.44;;;-144.09;99.18
8890;BME280;4481;43.406;24.454;2022-10-20T05:17:07;77563.06;;;-144.09;98.96
8890;BME280;4481;43.406;24.454;2022-10-20T05:19:34;77560.97;;;-144.09;98.84
8890;BME280;4481;43.406;24.454;2022-10-20T05:22:00;77583.97;;;-144.09;99.00
8890;BME280;4481;43.406;24.454;2022-10-20T05:24:27;77586.06;;;-144.09;99.14
8890;BME280;4481;43.406;24.454;2022-10-20T05:26:53;77573.53;;;-144.09;98.67
8890;BME280;4481;43.406;24.454;2022-10-20T05:29:19;77565.16;;;-144.09;98.32
8890;BME280;4481;43.406;24.454;2022-10-20T05:31:45;77558.88;;;-144.09;98.18
8890;BME280;4481;43.406;24.454;2022-10-20T05:34:12;77560.97;;;-144.09;97.89
8890;BME280;4481;43.406;24.454;2022-10-20T05:36:38;77556.81;;;-144.09;97.75
8890;BME280;4481;43.406;24.454;2022-10-20T05:39:05;77546.34;;;-144.09;97.77
8890;BME280;4481;43.406;24.454;2022-10-20T05:41:32;77542.16;;;-144.09;97.29
8890;BME280;4481;43.406;24.454;2022-10-20T05:44:00;77542.16;;;-144.09;97.31
8890;BME280;4481;43.406;24.454;2022-10-20T05:46:28;77542.16;;;-144.09;96.94
8890;BME280;4481;43.406;24.454;2022-10-20T05:48:57;77542.16;;;-144.09;96.82
8890;BME280;4481;43.406;24.454;2022-10-20T05:51:26;77535.91;;;-144.09;96.69
8890;BME280;4481;43.406;24.454;2022-10-20T05:53:54;77538.00;;;-144.09;96.74
8890;BME280;4481;43.406;24.454;2022-10-20T05:56:23;77533.81;;;-144.09;96.42
8890;BME280;4481;43.406;24.454;2022-10-20T05:58:49;77519.19;;;-144.09;96.15
8890;BME280;4481;43.406;24.454;2022-10-20T06:01:17;77517.09;;;-144.09;96.10
8890;BME280;4481;43.406;24.454;2022-10-20T06:03:48;77504.53;;;-144.09;95.76
8890;BME280;4481;43.406;24.454;2022-10-20T06:06:15;77523.34;;;-144.09;95.94
8890;BME280;4481;43.406;24.454;2022-10-20T06:08:41;77502.47;;;-144.09;95.71
8890;BME280;4481;43.406;24.454;2022-10-20T06:11:08;77494.09;;;-144.09;95.33
8890;BME280;4481;43.406;24.454;2022-10-20T06:13:36;77481.56;;;-144.09;94.93
8890;BME280;4481;43.406;24.454;2022-10-20T06:16:03;77477.38;;;-144.09;94.75
8890;BME280;4481;43.406;24.454;2022-10-20T06:18:30;77475.28;;;-144.09;94.69
8890;BME280;4481;43.406;24.454;2022-10-20T06:21:00;77429.31;;;-144.09;93.58
8890;BME280;4481;43.406;24.454;2022-10-20T06:23:27;77418.84;;;-144.09;93.13
8890;BME280;4481;43.406;24.454;2022-10-20T06:25:53;77404.22;;;-144.09;92.73
8890;BME280;4481;43.406;24.454;2022-10-20T06:28:20;77412.59;;;-144.09;92.43
8890;BME280;4481;43.406;24.454;2022-10-20T06:30:47;77406.31;;;-144.09;92.27
8890;BME280;4481;43.406;24.454;2022-10-20T06:33:14;77404.22;;;-144.09;92.06
8890;BME280;4481;43.406;24.454;2022-10-20T06:35:41;77397.94;;;-144.09;91.65
8890;BME280;4481;43.406;24.454;2022-10-20T06:38:07;77404.22;;;-144.09;91.55
8890;BME280;4481;43.406;24.454;2022-10-20T06:40:33;77420.94;;;-144.09;91.88
8890;BME280;4481;43.406;24.454;2022-10-20T06:42:59;77418.84;;;-144.09;91.81
8890;BME280;4481;43.406;24.454;2022-10-20T06:45:26;77408.41;;;-144.09;91.83
8890;BME280;4481;43.406;24.454;2022-10-20T06:47:52;77395.88;;;-144.09;91.58
8890;BME280;4481;43.406;24.454;2022-10-20T06:50:19;77381.22;;;-144.09;91.53
8890;BME280;4481;43.406;24.454;2022-10-20T06:52:45;77351.97;;;-144.09;90.32
8890;BME280;4481;43.406;24.454;2022-10-20T06:55:11;77312.25;;;-144.09;89.72
8890;BME280;4481;43.406;24.454;2022-10-20T06:57:37;77287.19;;;-144.09;88.95
8890;BME280;4481;43.406;24.454;2022-10-20T07:00:05;77262.09;;;-144.09;88.26
8890;BME280;4481;43.406;24.454;2022-10-20T07:02:31;77245.38;;;-144.09;87.44
8890;BME280;4481;43.406;24.454;2022-10-20T07:05:00;77255.81;;;-144.09;87.55
8890;BME280;4481;43.406;24.454;2022-10-20T07:07:27;77260.00;;;-144.09;87.65
8890;BME280;4481;43.406;24.454;2022-10-20T07:09:54;77324.81;;;-144.09;88.75
8890;BME280;4481;43.406;24.454;2022-10-20T07:12:20;77354.06;;;-144.09;89.53
8890;BME280;4481;43.406;24.454;2022-10-20T07:14:48;77364.50;;;-144.09;89.99
8890;BME280;4481;43.406;24.454;2022-10-20T07:17:14;77337.34;;;-144.09;89.48
8890;BME280;4481;43.406;24.454;2022-10-20T07:19:40;77328.97;;;-144.09;89.46
8890;BME280;4481;43.406;24.454;2022-10-20T07:22:07;77297.63;;;-144.09;88.72
8890;BME280;4481;43.406;24.454;2022-10-20T07:24:35;77289.28;;;-144.09;88.92
8890;BME280;4481;43.406;24.454;2022-10-20T07:27:02;77249.56;;;-144.09;88.03
8890;BME280;4481;43.406;24.454;2022-10-20T07:29:28;77222.38;;;-144.09;87.33
8890;BME280;4481;43.406;24.454;2022-10-20T07:31:54;77232.84;;;-144.09;87.27
8890;BME280;4481;43.406;24.454;2022-10-20T07:34:20;77230.75;;;-144.09;87.50
8890;BME280;4481;43.406;24.454;2022-10-20T07:36:49;77203.59;;;-144.09;87.01
8890;BME280;4481;43.406;24.454;2022-10-20T07:39:16;77180.59;;;-144.09;86.22
8890;BME280;4481;43.406;24.454;2022-10-20T07:41:42;77193.13;;;-144.09;86.73
8890;BME280;4481;43.406;24.454;2022-10-20T07:44:11;77180.59;;;-144.09;86.55
8890;BME280;4481;43.406;24.454;2022-10-20T07:46:38;77174.31;;;-144.09;86.18
8890;BME280;4481;43.406;24.454;2022-10-20T07:49:04;77174.31;;;-144.09;86.26
8890;BME280;4481;43.406;24.454;2022-10-20T07:51:30;77168.06;;;-144.09;86.00
8890;BME280;4481;43.406;24.454;2022-10-20T07:53:59;77165.97;;;-144.09;85.54
8890;BME280;4481;43.406;24.454;2022-10-20T07:56:28;77153.41;;;-144.09;85.36
8890;BME280;4481;43.406;24.454;2022-10-20T07:58:54;77103.25;;;-144.09;84.30
8890;BME280;4481;43.406;24.454;2022-10-20T08:01:21;77111.63;;;-144.09;84.09
8890;BME280;4481;43.406;24.454;2022-10-20T08:03:47;77126.25;;;-144.09;84.02
8890;BME280;4481;43.406;24.454;2022-10-20T08:06:13;77097.00;;;-144.09;83.92
8890;BME280;4481;43.406;24.454;2022-10-20T08:08:39;77088.63;;;-144.09;84.20
8890;BME280;4481;43.406;24.454;2022-10-20T08:11:05;77063.56;;;-144.09;82.88
8890;BME280;4481;43.406;24.454;2022-10-20T08:13:33;77061.47;;;-144.09;82.75
8890;BME280;4481;43.406;24.454;2022-10-20T08:15:59;77082.38;;;-144.09;82.77
8890;BME280;4481;43.406;24.454;2022-10-20T08:18:26;77038.47;;;-144.09;82.15
8890;BME280;4481;43.406;24.454;2022-10-20T08:20:52;77059.38;;;-144.09;82.18
8890;BME280;4481;43.406;24.454;2022-10-20T08:23:18;77036.38;;;-144.09;81.81
8890;BME280;4481;43.406;24.454;2022-10-20T08:25:44;77000.88;;;-144.09;80.37
8890;BME280;4481;43.406;24.454;2022-10-20T08:28:11;77009.22;;;-144.09;80.36
8890;BME280;4481;43.406;24.454;2022-10-20T08:30:37;77034.28;;;-144.09;80.26
8890;BME280;4481;43.406;24.454;2022-10-20T08:33:04;77009.22;;;-144.09;80.55
8890;BME280;4481;43.406;24.454;2022-10-20T08:35:30;77015.50;;;-144.09;80.38
8890;BME280;4481;43.406;24.454;2022-10-20T08:37:56;77005.03;;;-144.09;79.81
8890;BME280;4481;43.406;24.454;2022-10-20T08:40:25;77007.13;;;-144.09;80.15
8890;BME280;4481;43.406;24.454;2022-10-20T08:42:53;77013.41;;;-144.09;80.71
8890;BME280;4481;43.406;24.454;2022-10-20T08:45:21;77002.94;;;-144.09;80.60
8890;BME280;4481;43.406;24.454;2022-10-20T08:47:50;77011.31;;;-144.09;79.88
8890;BME280;4481;43.406;24.454;2022-10-20T08:50:19;77017.59;;;-144.09;79.82
8890;BME280;4481;43.406;24.454;2022-10-20T08:52:49;77015.50;;;-144.09;80.78
8890;BME280;4481;43.406;24.454;2022-10-20T08:55:21;77002.94;;;-144.09;80.07
8890;BME280;4481;43.406;24.454;2022-10-20T08:57:49;76982.06;;;-144.09;79.07
8890;BME280;4481;43.406;24.454;2022-10-20T09:00:18;76973.69;;;-144.09;78.93
8890;BME280;4481;43.406;24.454;2022-10-20T09:02:47;76969.50;;;-144.09;78.79
8890;BME280;4481;43.406;24.454;2022-10-20T09:05:15;76950.69;;;-144.09;78.52
8890;BME280;4481;43.406;24.454;2022-10-20T09:07:42;76936.06;;;-144.09;78.03
8890;BME280;4481;43.406;24.454;2022-10-20T09:10:21;76965.34;;;-144.09;78.03
8890;BME280;4481;43.406;24.454;2022-10-20T09:12:50;76975.78;;;-144.09;78.13
8890;BME280;4481;43.406;24.454;2022-10-20T09:15:19;76948.63;;;-144.09;77.79
8890;BME280;4481;43.406;24.454;2022-10-20T09:17:49;76923.53;;;-144.09;77.47
8890;BME280;4481;43.406;24.454;2022-10-20T09:20:20;76938.16;;;-144.09;78.37
8890;BME280;4481;43.406;24.454;2022-10-20T09:22:47;76927.72;;;-144.09;77.01
8890;BME280;4481;43.406;24.454;2022-10-20T09:25:15;76929.81;;;-144.09;76.99
8890;BME280;4481;43.406;24.454;2022-10-20T09:27:42;76936.06;;;-144.09;77.00
8890;BME280;4481;43.406;24.454;2022-10-20T09:30:16;76925.63;;;-144.09;77.35
8890;BME280;4481;43.406;24.454;2022-10-20T09:32:43;76917.28;;;-144.09;76.79
8890;BME280;4481;43.406;24.454;2022-10-20T09:35:28;76890.09;;;-144.09;74.71
8890;BME280;4481;43.406;24.454;2022-10-20T09:38:01;76908.91;;;-144.09;75.54
8890;BME280;4481;43.406;24.454;2022-10-20T09:40:28;76927.72;;;-144.09;76.17
8890;BME280;4481;43.406;24.454;2022-10-20T09:43:00;76938.16;;;-144.09;76.57
8890;BME280;4481;43.406;24.454;2022-10-20T09:45:28;76921.44;;;-144.09;75.87
8890;BME280;4481;43.406;24.454;2022-10-20T09:48:00;76898.47;;;-144.09;75.84
8890;BME280;4481;43.406;24.454;2022-10-20T09:50:29;76913.09;;;-144.09;76.32
8890;BME280;4481;43.406;24.454;2022-10-20T09:52:58;76898.47;;;-144.09;76.05
8890;BME280;4481;43.406;24.454;2022-10-20T09:55:28;76873.38;;;-144.09;75.17
8890;BME280;4481;43.406;24.454;2022-10-20T09:57:56;76896.38;;;-144.09;76.00
8890;BME280;4481;43.406;24.454;2022-10-20T10:00:25;76902.63;;;-144.09;76.28
8890;BME280;4481;43.406;24.454;2022-10-20T10:03:12;76883.84;;;-144.09;75.87
8890;BME280;4481;43.406;24.454;2022-10-20T10:05:45;76869.19;;;-144.09;75.15
8890;BME280;4481;43.406;24.454;2022-10-20T10:08:12;76894.28;;;-144.09;75.52
8890;BME280;4481;43.406;24.454;2022-10-20T10:10:40;76877.56;;;-144.09;75.74
8890;BME280;4481;43.406;24.454;2022-10-20T10:13:20;76835.78;;;-144.09;74.24
8890;BME280;4481;43.406;24.454;2022-10-20T10:15:49;76814.88;;;-144.09;74.50
8890;BME280;4481;43.406;24.454;2022-10-20T10:18:23;76819.06;;;-144.09;74.55
8890;BME280;4481;43.406;24.454;2022-10-20T10:20:58;76802.34;;;-144.09;73.96
8890;BME280;4481;43.406;24.454;2022-10-20T10:23:26;76793.97;;;-144.09;72.55
8890;BME280;4481;43.406;24.454;2022-10-20T10:25:53;76793.97;;;-144.09;73.20
8890;BME280;4481;43.406;24.454;2022-10-20T10:28:26;76771.00;;;-144.09;73.04
8890;BME280;4481;43.406;24.454;2022-10-20T10:31:20;76768.91;;;-144.09;72.78
8890;BME280;4481;43.406;24.454;2022-10-20T10:33:48;76791.88;;;-144.09;73.30
8890;BME280;4481;43.406;24.454;2022-10-20T10:36:30;76798.16;;;-144.09;73.98
8890;BME280;4481;43.406;24.454;2022-10-20T10:38:57;76777.25;;;-144.09;73.54
8890;BME280;4481;43.406;24.454;2022-10-20T10:41:34;76768.91;;;-144.09;73.04
8890;BME280;4481;43.406;24.454;2022-10-20T10:44:06;76779.34;;;-144.09;72.18
8890;BME280;4481;43.406;24.454;2022-10-20T10:46:39;76762.63;;;-144.09;71.75
8890;BME280;4481;43.406;24.454;2022-10-20T10:49:23;76758.44;;;-144.09;72.09
8890;BME280;4481;43.406;24.454;2022-10-20T10:52:00;76745.91;;;-144.09;71.16
8890;BME280;4481;43.406;24.454;2022-10-20T10:54:46;76731.28;;;-144.09;70.87
8890;BME280;4481;43.406;24.454;2022-10-20T10:57:24;76729.19;;;-144.09;69.07
8890;BME280;4481;43.406;24.454;2022-10-20T10:59:51;76745.91;;;-144.09;69.89
8890;BME280;4481;43.406;24.454;2022-10-20T11:02:38;76764.72;;;-144.09;70.60
8890;BME280;4481;43.406;24.454;2022-10-20T11:08:19;76802.34;;;-144.09;71.23
8890;BME280;4481;43.406;24.454;2022-10-20T11:10:55;76810.69;;;-144.09;71.22
8890;BME280;4481;43.406;24.454;2022-10-20T11:13:28;76789.78;;;-144.09;71.77
8890;BME280;4481;43.406;24.454;2022-10-20T11:16:05;76785.63;;;-144.09;71.66
8890;BME280;4481;43.406;24.454;2022-10-20T11:18:51;76764.72;;;-144.09;72.14
8890;BME280;4481;43.406;24.454;2022-10-20T11:21:30;76748.00;;;-144.09;70.98
8890;BME280;4481;43.406;24.454;2022-10-20T11:24:09;76743.81;;;-144.09;71.73
8890;BME280;4481;43.406;24.454;2022-10-20T11:26:42;76760.53;;;-144.09;71.89
8890;BME280;4481;43.406;24.454;2022-10-20T11:29:13;76750.09;;;-144.09;71.53
8890;BME280;4481;43.406;24.454;2022-10-20T11:31:47;76760.53;;;-144.09;72.25
8890;BME280;4481;43.406;24.454;2022-10-20T11:34:23;76754.28;;;-144.09;71.24
8890;BME280;4481;43.406;24.454;2022-10-20T11:36:59;76743.81;;;-144.09;70.67
8890;BME280;4481;43.406;24.454;2022-10-20T11:39:32;76714.56;;;-144.09;69.39
8890;BME280;4481;43.406;24.454;2022-10-20T11:42:09;76670.69;;;-144.09;68.21
8890;BME280;4481;43.406;24.454;2022-10-20T11:44:39;76668.59;;;-144.09;69.28
8890;BME280;4481;43.406;24.454;2022-10-20T11:47:09;76645.59;;;-144.09;68.71
8890;BME280;4481;43.406;24.454;2022-10-20T11:49:38;76635.16;;;-144.09;68.26
8890;BME280;4481;43.406;24.454;2022-10-20T11:55:20;76599.63;;;-144.09;66.25
8890;BME280;4481;43.406;24.454;2022-10-20T11:58:09;76593.38;;;-144.09;65.87
8890;BME280;4481;43.406;24.454;2022-10-20T12:00:56;76582.91;;;-144.09;64.89
8890;BME280;4481;43.406;24.454;2022-10-20T12:03:43;76591.28;;;-144.09;63.19
8890;BME280;4481;43.406;24.454;2022-10-20T12:06:40;76572.47;;;-144.09;64.37
8890;BME280;4481;43.406;24.454;2022-10-20T12:09:23;76593.38;;;-144.09;63.45
8890;BME280;4481;43.406;24.454;2022-10-20T12:11:59;76585.00;;;-144.09;63.99
8890;BME280;4481;43.406;24.454;2022-10-20T12:14:32;76547.41;;;-144.09;62.93
8890;BME280;4481;43.406;24.454;2022-10-20T12:17:12;76572.47;;;-144.09;62.26
8890;BME280;4481;43.406;24.454;2022-10-20T12:19:40;76597.56;;;-144.09;63.07
8890;BME280;4481;43.406;24.454;2022-10-20T12:22:39;76585.00;;;-144.09;63.12
8890;BME280;4481;43.406;24.454;2022-10-20T12:28:37;76555.75;;;-144.09;63.06
8890;BME280;4481;43.406;24.454;2022-10-20T12:31:05;76534.88;;;-144.09;62.21
8890;BME280;4481;43.406;24.454;2022-10-20T12:33:37;76545.31;;;-144.09;61.52
8890;BME280;4481;43.406;24.454;2022-10-20T12:36:25;76597.56;;;-144.09;62.73
8890;BME280;4481;43.406;24.454;2022-10-20T12:39:05;76564.13;;;-144.09;62.69
8890;BME280;4481;43.406;24.454;2022-10-20T12:41:43;76587.09;;;-144.09;62.41
8890;BME280;4481;43.406;24.454;2022-10-20T12:44:14;76582.91;;;-144.09;62.72
8890;BME280;4481;43.406;24.454;2022-10-20T12:46:50;76605.91;;;-144.09;61.76
8890;BME280;4481;43.406;24.454;2022-10-20T12:49:23;76618.44;;;-144.09;61.50
8890;BME280;4481;43.406;24.454;2022-10-20T12:51:54;76605.91;;;-144.09;61.82
8890;BME280;4481;43.406;24.454;2022-10-20T12:54:24;76595.47;;;-144.09;61.99
8890;BME280;4481;43.406;24.454;2022-10-20T12:56:56;76614.25;;;-144.09;61.87
8890;BME280;4481;43.406;24.454;2022-10-20T12:59:45;76647.69;;;-144.09;61.94
8890;BME280;4481;43.406;24.454;2022-10-20T13:02:50;76630.97;;;-144.09;62.65
8890;BME280;4481;43.406;24.454;2022-10-20T13:05:27;76645.59;;;-144.09;61.32
8890;BME280;4481;43.406;24.454;2022-10-20T13:10:56;76626.81;;;-144.09;60.30
8890;BME280;4481;43.406;24.454;2022-10-20T13:13:55;76601.72;;;-144.09;59.29
8890;BME280;4481;43.406;24.454;2022-10-20T13:16:27;76649.78;;;-144.09;58.84